sensor_id;sensor_type;location;lat;lon;timestamp;temperature;humidity
60353;DHT22;46196;52.970;6.954;2023-09-08T00:00:56;19.20;99.90
60353;DHT22;46196;52.970;6.954;2023-09-08T00:03:22;19.40;99.90
60353;DHT22;46196;52.970;6.954;2023-09-08T00:05:48;19.10;99.90
60353;DHT22;46196;52.970;6.954;2023-09-08T00:08:13;19.40;99.90
60353;DHT22;46196;52.970;6.954;2023-09-08T00:10:39;18.90;99.90
60353;DHT22;46196;52.970;6.954;2023-09-08T00:13:05;19.00;99.90
60353;DHT22;46196;52.970;6.954;2023-09-08T00:15:33;19.00;99.90
60353;DHT22;46196;52.970;6.954;2023-09-08T00:18:00;18.90;99.90
60353;DHT22;46196;52.970;6.954;2023-09-08T00:20:26;18.90;99.90
60353;DHT22;46196;52.970;6.954;2023-09-08T00:22:52;18.90;99.90
60353;DHT22;46196;52.970;6.954;2023-09-08T00:25:17;19.40;99.90
60353;DHT22;46196;52.970;6.954;2023-09-08T00:27:43;18.60;99.90
60353;DHT22;46196;52.970;6.954;2023-09-08T00:32:36;17.20;99.90
60353;DHT22;46196;52.970;6.954;2023-09-08T00:35:02;18.70;99.90
60353;DHT22;46196;52.970;6.954;2023-09-08T00:37:28;18.70;99.90
60353;DHT22;46196;52.970;6.954;2023-09-08T00:39:53;18.50;99.90
60353;DHT22;46196;52.970;6.954;2023-09-08T00:42:19;18.60;99.90
60353;DHT22;46196;52.970;6.954;2023-09-08T00:44:44;18.60;99.90
60353;DHT22;46196;52.970;6.954;2023-09-08T00:47:10;18.60;99.90
60353;DHT22;46196;52.970;6.954;2023-09-08T00:49:36;18.40;99.90
60353;DHT22;46196;52.970;6.954;2023-09-08T00:52:02;18.40;99.90
60353;DHT22;46196;52.970;6.954;2023-09-08T00:54:28;19.90;99.90
60353;DHT22;46196;52.970;6.954;2023-09-08T00:56:56;18.70;99.90
60353;DHT22;46196;52.970;6.954;2023-09-08T00:59:23;18.30;99.90
60353;DHT22;46196;52.970;6.954;2023-09-08T01:01:50;18.20;99.90
60353;DHT22;46196;52.970;6.954;2023-09-08T01:04:16;17.80;99.90
60353;DHT22;46196;52.970;6.954;2023-09-08T01:06:42;18.40;99.90
60353;DHT22;46196;52.970;6.954;2023-09-08T01:09:08;18.10;99.90
60353;DHT22;46196;52.970;6.954;2023-09-08T01:11:35;18.00;99.90
60353;DHT22;46196;52.970;6.954;2023-09-08T01:14:00;19.20;99.90
60353;DHT22;46196;52.970;6.954;2023-09-08T01:16:26;19.10;99.90
60353;DHT22;46196;52.970;6.954;2023-09-08T01:18:52;18.10;99.90
60353;DHT22;46196;52.970;6.954;2023-09-08T01:26:58;17.70;99.90
60353;DHT22;46196;52.970;6.954;2023-09-08T01:29:25;18.20;99.90
60353;DHT22;46196;52.970;6.954;2023-09-08T01:31:51;18.50;99.90
60353;DHT22;46196;52.970;6.954;2023-09-08T01:34:18;17.80;99.90
60353;DHT22;46196;52.970;6.954;2023-09-08T01:36:45;18.80;99.90
60353;DHT22;46196;52.970;6.954;2023-09-08T01:39:11;17.70;99.90
60353;DHT22;46196;52.970;6.954;2023-09-08T01:44:03;17.70;99.90
60353;DHT22;46196;52.970;6.954;2023-09-08T01:46:34;17.20;99.90
60353;DHT22;46196;52.970;6.954;2023-09-08T01:48:59;17.50;99.90
60353;DHT22;46196;52.970;6.954;2023-09-08T01:51:25;18.10;99.90
60353;DHT22;46196;52.970;6.954;2023-09-08T01:56:17;18.30;99.90
60353;DHT22;46196;52.970;6.954;2023-09-08T01:58:42;16.80;99.90
60353;DHT22;46196;52.970;6.954;2023-09-08T02:01:08;18.40;99.90
60353;DHT22;46196;52.970;6.954;2023-09-08T02:03:34;17.00;99.90
60353;DHT22;46196;52.970;6.954;2023-09-08T02:06:00;17.20;99.90
60353;DHT22;46196;52.970;6.954;2023-09-08T02:08:26;17.30;99.90
60353;DHT22;46196;52.970;6.954;2023-09-08T02:10:51;17.30;99.90
60353;DHT22;46196;52.970;6.954;2023-09-08T02:13:17;17.80;99.90
60353;DHT22;46196;52.970;6.954;2023-09-08T02:15:43;17.30;99.90
60353;DHT22;46196;52.970;6.954;2023-09-08T02:23:05;18.00;99.90
60353;DHT22;46196;52.970;6.954;2023-09-08T02:27:57;17.00;99.90
60353;DHT22;46196;52.970;6.954;2023-09-08T02:30:23;17.60;99.90
60353;DHT22;46196;52.970;6.954;2023-09-08T02:32:49;17.20;99.90
60353;DHT22;46196;52.970;6.954;2023-09-08T02:35:14;17.40;99.90
60353;DHT22;46196;52.970;6.954;2023-09-08T02:37:40;17.00;99.90
60353;DHT22;46196;52.970;6.954;2023-09-08T02:40:07;17.20;99.90
60353;DHT22;46196;52.970;6.954;2023-09-08T02:42:32;17.60;99.90
60353;DHT22;46196;52.970;6.954;2023-09-08T02:44:58;17.10;99.90
60353;DHT22;46196;52.970;6.954;2023-09-08T02:47:24;17.10;99.90
60353;DHT22;46196;52.970;6.954;2023-09-08T02:49:49;17.30;99.90
60353;DHT22;46196;52.970;6.954;2023-09-08T02:54:41;15.90;99.90
60353;DHT22;46196;52.970;6.954;2023-09-08T02:57:07;17.20;99.90
60353;DHT22;46196;52.970;6.954;2023-09-08T02:59:33;17.10;99.90
60353;DHT22;46196;52.970;6.954;2023-09-08T03:02:00;16.90;99.90
60353;DHT22;46196;52.970;6.954;2023-09-08T03:04:25;17.00;99.90
60353;DHT22;46196;52.970;6.954;2023-09-08T03:06:51;16.90;99.90
60353;DHT22;46196;52.970;6.954;2023-09-08T03:09:16;17.10;99.90
60353;DHT22;46196;52.970;6.954;2023-09-08T03:11:42;17.00;99.90
60353;DHT22;46196;52.970;6.954;2023-09-08T03:14:08;16.80;99.90
60353;DHT22;46196;52.970;6.954;2023-09-08T03:16:33;17.40;99.90
60353;DHT22;46196;52.970;6.954;2023-09-08T03:18:59;17.00;99.90
60353;DHT22;46196;52.970;6.954;2023-09-08T03:21:25;15.80;99.90
60353;DHT22;46196;52.970;6.954;2023-09-08T03:23:50;16.80;99.90
60353;DHT22;46196;52.970;6.954;2023-09-08T03:26:16;16.90;99.90
60353;DHT22;46196;52.970;6.954;2023-09-08T03:33:34;17.20;99.90
60353;DHT22;46196;52.970;6.954;2023-09-08T03:36:00;16.80;99.90
60353;DHT22;46196;52.970;6.954;2023-09-08T03:40:53;16.70;99.90
60353;DHT22;46196;52.970;6.954;2023-09-08T03:43:19;17.20;99.90
60353;DHT22;46196;52.970;6.954;2023-09-08T03:45:44;17.00;99.90
60353;DHT22;46196;52.970;6.954;2023-09-08T03:48:10;16.40;99.90
60353;DHT22;46196;52.970;6.954;2023-09-08T03:50:36;16.40;99.90
60353;DHT22;46196;52.970;6.954;2023-09-08T03:53:02;16.50;99.90
60353;DHT22;46196;52.970;6.954;2023-09-08T03:55:28;16.80;99.90
60353;DHT22;46196;52.970;6.954;2023-09-08T03:57:53;16.20;99.90
60353;DHT22;46196;52.970;6.954;2023-09-08T04:00:19;17.30;99.90
60353;DHT22;46196;52.970;6.954;2023-09-08T04:02:48;16.70;99.90
60353;DHT22;46196;52.970;6.954;2023-09-08T04:05:15;17.20;99.90
60353;DHT22;46196;52.970;6.954;2023-09-08T04:07:41;16.60;99.90
60353;DHT22;46196;52.970;6.954;2023-09-08T04:10:07;17.60;99.90
60353;DHT22;46196;52.970;6.954;2023-09-08T04:12:32;16.60;99.90
60353;DHT22;46196;52.970;6.954;2023-09-08T04:14:58;16.50;99.90
60353;DHT22;46196;52.970;6.954;2023-09-08T04:17:24;17.60;99.90
60353;DHT22;46196;52.970;6.954;2023-09-08T04:19:49;16.50;99.90
60353;DHT22;46196;52.970;6.954;2023-09-08T04:22:15;16.50;99.90
60353;DHT22;46196;52.970;6.954;2023-09-08T04:24:41;17.00;99.90
60353;DHT22;46196;52.970;6.954;2023-09-08T04:27:07;16.60;99.90
60353;DHT22;46196;52.970;6.954;2023-09-08T04:29:34;16.70;99.90
60353;DHT22;46196;52.970;6.954;2023-09-08T04:32:00;17.00;99.90
60353;DHT22;46196;52.970;6.954;2023-09-08T04:34:25;17.00;99.90
60353;DHT22;46196;52.970;6.954;2023-09-08T04:36:51;17.10;99.90
60353;DHT22;46196;52.970;6.954;2023-09-08T04:39:17;16.60;99.90
60353;DHT22;46196;52.970;6.954;2023-09-08T04:41:42;16.90;99.90
60353;DHT22;46196;52.970;6.954;2023-09-08T04:44:09;17.30;99.90
60353;DHT22;46196;52.970;6.954;2023-09-08T04:46:35;16.50;99.90
60353;DHT22;46196;52.970;6.954;2023-09-08T04:49:02;16.40;99.90
60353;DHT22;46196;52.970;6.954;2023-09-08T04:51:28;17.60;99.90
60353;DHT22;46196;52.970;6.954;2023-09-08T04:56:19;17.30;99.90
60353;DHT22;46196;52.970;6.954;2023-09-08T04:58:45;16.40;99.90
60353;DHT22;46196;52.970;6.954;2023-09-08T05:01:11;16.30;99.90
60353;DHT22;46196;52.970;6.954;2023-09-08T05:03:36;16.70;99.90
60353;DHT22;46196;52.970;6.954;2023-09-08T05:06:02;16.60;99.90
60353;DHT22;46196;52.970;6.954;2023-09-08T05:10:54;17.60;99.90
60353;DHT22;46196;52.970;6.954;2023-09-08T05:13:20;16.20;99.90
60353;DHT22;46196;52.970;6.954;2023-09-08T05:15:48;16.30;99.90
60353;DHT22;46196;52.970;6.954;2023-09-08T05:20:40;17.00;99.90
60353;DHT22;46196;52.970;6.954;2023-09-08T05:23:05;16.50;99.90
60353;DHT22;46196;52.970;6.954;2023-09-08T05:25:31;15.00;99.90
60353;DHT22;46196;52.970;6.954;2023-09-08T05:27:57;16.50;99.90
60353;DHT22;46196;52.970;6.954;2023-09-08T05:30:23;16.50;99.90
60353;DHT22;46196;52.970;6.954;2023-09-08T05:32:49;16.50;99.90
60353;DHT22;46196;52.970;6.954;2023-09-08T05:35:15;16.40;99.90
60353;DHT22;46196;52.970;6.954;2023-09-08T05:37:41;16.80;99.90
60353;DHT22;46196;52.970;6.954;2023-09-08T05:40:07;16.00;99.90
60353;DHT22;46196;52.970;6.954;2023-09-08T05:42:32;16.80;99.90
60353;DHT22;46196;52.970;6.954;2023-09-08T05:45:02;16.50;99.90
60353;DHT22;46196;52.970;6.954;2023-09-08T05:47:31;16.50;99.90
60353;DHT22;46196;52.970;6.954;2023-09-08T05:52:24;16.50;99.90
60353;DHT22;46196;52.970;6.954;2023-09-08T05:54:49;15.80;99.90
60353;DHT22;46196;52.970;6.954;2023-09-08T05:57:15;16.60;99.90
60353;DHT22;46196;52.970;6.954;2023-09-08T05:59:41;16.80;99.90
60353;DHT22;46196;52.970;6.954;2023-09-08T06:02:06;16.60;99.90
60353;DHT22;46196;52.970;6.954;2023-09-08T06:04:32;17.00;99.90
60353;DHT22;46196;52.970;6.954;2023-09-08T06:06:58;16.30;99.90
60353;DHT22;46196;52.970;6.954;2023-09-08T06:09:24;17.00;99.90
60353;DHT22;46196;52.970;6.954;2023-09-08T06:11:49;16.70;99.90
60353;DHT22;46196;52.970;6.954;2023-09-08T06:14:15;16.70;99.90
60353;DHT22;46196;52.970;6.954;2023-09-08T06:16:41;16.70;99.90
60353;DHT22;46196;52.970;6.954;2023-09-08T06:19:07;16.90;99.90
60353;DHT22;46196;52.970;6.954;2023-09-08T06:21:33;18.40;99.90
60353;DHT22;46196;52.970;6.954;2023-09-08T06:23:59;16.40;99.90
60353;DHT22;46196;52.970;6.954;2023-09-08T06:26:24;17.10;99.90
60353;DHT22;46196;52.970;6.954;2023-09-08T06:28:50;17.10;99.90
60353;DHT22;46196;52.970;6.954;2023-09-08T06:33:42;17.50;99.90
60353;DHT22;46196;52.970;6.954;2023-09-08T06:36:07;17.80;99.90
60353;DHT22;46196;52.970;6.954;2023-09-08T06:38:33;17.50;99.90
60353;DHT22;46196;52.970;6.954;2023-09-08T06:40:59;18.00;99.90
60353;DHT22;46196;52.970;6.954;2023-09-08T06:43:26;19.00;99.90
60353;DHT22;46196;52.970;6.954;2023-09-08T06:45:51;19.80;99.90
60353;DHT22;46196;52.970;6.954;2023-09-08T06:48:17;19.00;99.90
60353;DHT22;46196;52.970;6.954;2023-09-08T06:53:09;17.70;99.90
60353;DHT22;46196;52.970;6.954;2023-09-08T06:55:36;18.00;99.90
60353;DHT22;46196;52.970;6.954;2023-09-08T06:58:02;18.10;99.90
60353;DHT22;46196;52.970;6.954;2023-09-08T07:00:28;18.10;99.90
60353;DHT22;46196;52.970;6.954;2023-09-08T07:02:53;18.50;99.90
60353;DHT22;46196;52.970;6.954;2023-09-08T07:10:11;18.20;99.90
60353;DHT22;46196;52.970;6.954;2023-09-08T07:12:37;20.00;99.90
60353;DHT22;46196;52.970;6.954;2023-09-08T07:15:03;18.50;99.90
60353;DHT22;46196;52.970;6.954;2023-09-08T07:17:29;18.70;99.90
60353;DHT22;46196;52.970;6.954;2023-09-08T07:19:54;19.40;99.90
60353;DHT22;46196;52.970;6.954;2023-09-08T07:22:20;18.30;99.90
60353;DHT22;46196;52.970;6.954;2023-09-08T07:24:46;18.60;99.90
60353;DHT22;46196;52.970;6.954;2023-09-08T07:27:11;19.20;99.90
60353;DHT22;46196;52.970;6.954;2023-09-08T07:29:40;19.10;99.90
60353;DHT22;46196;52.970;6.954;2023-09-08T07:32:07;19.20;99.90
60353;DHT22;46196;52.970;6.954;2023-09-08T07:34:32;19.40;99.90
60353;DHT22;46196;52.970;6.954;2023-09-08T07:37:00;19.30;99.90
60353;DHT22;46196;52.970;6.954;2023-09-08T07:39:26;19.50;99.90
60353;DHT22;46196;52.970;6.954;2023-09-08T07:41:56;19.60;99.90
60353;DHT22;46196;52.970;6.954;2023-09-08T07:44:22;19.40;99.90
60353;DHT22;46196;52.970;6.954;2023-09-08T07:46:48;19.90;99.90
60353;DHT22;46196;52.970;6.954;2023-09-08T07:49:15;20.00;99.90
60353;DHT22;46196;52.970;6.954;2023-09-08T07:54:07;21.80;99.90
60353;DHT22;46196;52.970;6.954;2023-09-08T07:56:33;23.00;99.90
60353;DHT22;46196;52.970;6.954;2023-09-08T07:58:59;25.20;99.90
60353;DHT22;46196;52.970;6.954;2023-09-08T08:01:24;25.60;99.90
60353;DHT22;46196;52.970;6.954;2023-09-08T08:03:50;25.30;99.90
60353;DHT22;46196;52.970;6.954;2023-09-08T08:06:16;26.20;99.90
60353;DHT22;46196;52.970;6.954;2023-09-08T08:08:42;26.90;99.90
60353;DHT22;46196;52.970;6.954;2023-09-08T08:11:12;27.70;99.90
60353;DHT22;46196;52.970;6.954;2023-09-08T08:13:38;28.40;99.90
60353;DHT22;46196;52.970;6.954;2023-09-08T08:16:04;29.00;99.90
60353;DHT22;46196;52.970;6.954;2023-09-08T08:18:29;29.70;92.90
60353;DHT22;46196;52.970;6.954;2023-09-08T08:20:55;29.80;95.60
60353;DHT22;46196;52.970;6.954;2023-09-08T08:23:21;30.20;95.20
60353;DHT22;46196;52.970;6.954;2023-09-08T08:25:48;30.50;95.20
60353;DHT22;46196;52.970;6.954;2023-09-08T08:28:13;30.90;94.50
60353;DHT22;46196;52.970;6.954;2023-09-08T08:30:40;31.30;93.10
60353;DHT22;46196;52.970;6.954;2023-09-08T08:33:06;31.70;88.50
60353;DHT22;46196;52.970;6.954;2023-09-08T08:35:32;32.20;88.30
60353;DHT22;46196;52.970;6.954;2023-09-08T08:38:01;32.30;90.50
60353;DHT22;46196;52.970;6.954;2023-09-08T08:42:58;32.90;87.70
60353;DHT22;46196;52.970;6.954;2023-09-08T08:45:25;32.90;83.30
60353;DHT22;46196;52.970;6.954;2023-09-08T08:47:51;33.10;81.10
60353;DHT22;46196;52.970;6.954;2023-09-08T08:50:18;33.00;81.00
60353;DHT22;46196;52.970;6.954;2023-09-08T08:52:44;33.10;81.50
60353;DHT22;46196;52.970;6.954;2023-09-08T08:55:12;33.30;80.90
60353;DHT22;46196;52.970;6.954;2023-09-08T08:57:38;33.40;79.40
60353;DHT22;46196;52.970;6.954;2023-09-08T09:00:07;33.60;80.40
60353;DHT22;46196;52.970;6.954;2023-09-08T09:12:33;34.10;75.60
60353;DHT22;46196;52.970;6.954;2023-09-08T09:14:59;34.10;75.60
60353;DHT22;46196;52.970;6.954;2023-09-08T09:17:32;34.00;74.60
60353;DHT22;46196;52.970;6.954;2023-09-08T09:20:13;34.10;75.10
60353;DHT22;46196;52.970;6.954;2023-09-08T09:22:40;34.20;73.80
60353;DHT22;46196;52.970;6.954;2023-09-08T09:25:06;34.30;74.50
60353;DHT22;46196;52.970;6.954;2023-09-08T09:27:33;34.30;73.80
60353;DHT22;46196;52.970;6.954;2023-09-08T09:30:04;34.30;72.60
60353;DHT22;46196;52.970;6.954;2023-09-08T09:32:31;34.40;73.10
60353;DHT22;46196;52.970;6.954;2023-09-08T09:34:59;34.30;72.60
60353;DHT22;46196;52.970;6.954;2023-09-08T09:37:26;34.80;71.30
60353;DHT22;46196;52.970;6.954;2023-09-08T09:39:53;34.40;72.60
60353;DHT22;46196;52.970;6.954;2023-09-08T09:42:20;34.30;71.70
60353;DHT22;46196;52.970;6.954;2023-09-08T09:44:51;34.30;69.60
60353;DHT22;46196;52.970;6.954;2023-09-08T09:47:17;33.90;70.90
60353;DHT22;46196;52.970;6.954;2023-09-08T09:49:47;33.70;70.00
60353;DHT22;46196;52.970;6.954;2023-09-08T09:52:14;33.50;70.20
60353;DHT22;46196;52.970;6.954;2023-09-08T09:54:43;33.40;71.00
60353;DHT22;46196;52.970;6.954;2023-09-08T09:57:13;33.20;71.60
60353;DHT22;46196;52.970;6.954;2023-09-08T09:59:40;32.90;72.40
60353;DHT22;46196;52.970;6.954;2023-09-08T10:02:13;32.60;71.50
60353;DHT22;46196;52.970;6.954;2023-09-08T10:04:43;32.40;73.30
60353;DHT22;46196;52.970;6.954;2023-09-08T10:07:11;32.10;71.60
60353;DHT22;46196;52.970;6.954;2023-09-08T10:09:37;31.70;71.20
60353;DHT22;46196;52.970;6.954;2023-09-08T10:12:08;31.40;70.90
60353;DHT22;46196;52.970;6.954;2023-09-08T10:14:40;31.00;72.10
60353;DHT22;46196;52.970;6.954;2023-09-08T10:17:11;30.90;73.40
60353;DHT22;46196;52.970;6.954;2023-09-08T10:19:38;30.90;74.10
60353;DHT22;46196;52.970;6.954;2023-09-08T10:22:11;30.90;74.20
60353;DHT22;46196;52.970;6.954;2023-09-08T10:24:38;31.00;74.00
60353;DHT22;46196;52.970;6.954;2023-09-08T10:27:09;31.00;73.90
60353;DHT22;46196;52.970;6.954;2023-09-08T10:29:36;31.10;73.70
60353;DHT22;46196;52.970;6.954;2023-09-08T10:32:02;31.20;73.90
60353;DHT22;46196;52.970;6.954;2023-09-08T10:34:30;31.20;75.70
60353;DHT22;46196;52.970;6.954;2023-09-08T10:36:57;31.90;73.60
60353;DHT22;46196;52.970;6.954;2023-09-08T10:39:32;30.40;72.50
60353;DHT22;46196;52.970;6.954;2023-09-08T10:47:25;31.50;73.70
60353;DHT22;46196;52.970;6.954;2023-09-08T10:49:52;31.50;69.60
60353;DHT22;46196;52.970;6.954;2023-09-08T10:52:24;31.50;71.70
60353;DHT22;46196;52.970;6.954;2023-09-08T10:54:51;31.70;72.00
60353;DHT22;46196;52.970;6.954;2023-09-08T10:57:20;31.70;72.50
60353;DHT22;46196;52.970;6.954;2023-09-08T10:59:57;31.70;70.10
60353;DHT22;46196;52.970;6.954;2023-09-08T11:05:14;31.80;71.00
60353;DHT22;46196;52.970;6.954;2023-09-08T11:07:42;32.00;71.70
60353;DHT22;46196;52.970;6.954;2023-09-08T11:10:09;31.90;72.30
60353;DHT22;46196;52.970;6.954;2023-09-08T11:12:35;32.10;71.20
60353;DHT22;46196;52.970;6.954;2023-09-08T11:15:03;32.10;70.40
60353;DHT22;46196;52.970;6.954;2023-09-08T11:17:34;31.90;69.70
60353;DHT22;46196;52.970;6.954;2023-09-08T11:20:02;32.20;71.30
60353;DHT22;46196;52.970;6.954;2023-09-08T11:22:39;32.20;71.40
60353;DHT22;46196;52.970;6.954;2023-09-08T11:25:07;31.60;68.10
60353;DHT22;46196;52.970;6.954;2023-09-08T11:27:33;32.70;69.60
60353;DHT22;46196;52.970;6.954;2023-09-08T11:29:59;32.30;69.70
60353;DHT22;46196;52.970;6.954;2023-09-08T11:32:31;32.40;69.50
60353;DHT22;46196;52.970;6.954;2023-09-08T11:35:04;32.40;68.20
60353;DHT22;46196;52.970;6.954;2023-09-08T11:37:38;32.80;68.80
60353;DHT22;46196;52.970;6.954;2023-09-08T11:40:05;32.50;68.80
60353;DHT22;46196;52.970;6.954;2023-09-08T11:42:42;32.50;69.60
60353;DHT22;46196;52.970;6.954;2023-09-08T11:45:15;32.60;69.00
60353;DHT22;46196;52.970;6.954;2023-09-08T11:47:43;32.60;69.30
60353;DHT22;46196;52.970;6.954;2023-09-08T11:50:10;32.70;69.10
60353;DHT22;46196;52.970;6.954;2023-09-08T11:52:37;32.70;67.60
60353;DHT22;46196;52.970;6.954;2023-09-08T11:55:04;33.80;68.20
60353;DHT22;46196;52.970;6.954;2023-09-08T11:57:31;32.60;66.70
60353;DHT22;46196;52.970;6.954;2023-09-08T11:59:58;32.60;66.50
60353;DHT22;46196;52.970;6.954;2023-09-08T12:02:24;32.60;66.30
60353;DHT22;46196;52.970;6.954;2023-09-08T12:04:53;32.60;66.30
60353;DHT22;46196;52.970;6.954;2023-09-08T12:07:19;32.70;66.00
60353;DHT22;46196;52.970;6.954;2023-09-08T12:09:45;32.70;66.20
60353;DHT22;46196;52.970;6.954;2023-09-08T12:12:12;32.80;63.80
60353;DHT22;46196;52.970;6.954;2023-09-08T12:14:43;32.80;64.60
60353;DHT22;46196;52.970;6.954;2023-09-08T12:17:09;31.50;64.80
60353;DHT22;46196;52.970;6.954;2023-09-08T12:19:35;32.50;66.10
60353;DHT22;46196;52.970;6.954;2023-09-08T12:22:03;32.50;65.50
60353;DHT22;46196;52.970;6.954;2023-09-08T12:24:57;32.50;66.50
60353;DHT22;46196;52.970;6.954;2023-09-08T12:27:24;32.60;65.00
60353;DHT22;46196;52.970;6.954;2023-09-08T12:30:00;32.70;66.20
60353;DHT22;46196;52.970;6.954;2023-09-08T12:32:30;32.80;66.30
60353;DHT22;46196;52.970;6.954;2023-09-08T12:34:58;32.90;67.50
60353;DHT22;46196;52.970;6.954;2023-09-08T12:37:25;33.00;65.50
60353;DHT22;46196;52.970;6.954;2023-09-08T12:39:55;32.90;65.20
60353;DHT22;46196;52.970;6.954;2023-09-08T12:42:22;32.90;66.90
60353;DHT22;46196;52.970;6.954;2023-09-08T12:44:51;33.00;66.90
60353;DHT22;46196;52.970;6.954;2023-09-08T12:47:17;33.00;66.40
60353;DHT22;46196;52.970;6.954;2023-09-08T12:49:43;33.00;65.30
60353;DHT22;46196;52.970;6.954;2023-09-08T12:52:09;33.00;65.40
60353;DHT22;46196;52.970;6.954;2023-09-08T12:54:35;34.80;66.70
60353;DHT22;46196;52.970;6.954;2023-09-08T12:57:02;33.30;64.60
60353;DHT22;46196;52.970;6.954;2023-09-08T12:59:27;33.30;65.00
60353;DHT22;46196;52.970;6.954;2023-09-08T13:01:53;33.40;65.20
60353;DHT22;46196;52.970;6.954;2023-09-08T13:04:19;33.50;65.60
60353;DHT22;46196;52.970;6.954;2023-09-08T13:06:45;33.50;63.60
60353;DHT22;46196;52.970;6.954;2023-09-08T13:09:11;33.70;64.00
60353;DHT22;46196;52.970;6.954;2023-09-08T13:11:37;33.80;64.50
60353;DHT22;46196;52.970;6.954;2023-09-08T13:14:03;34.00;64.20
60353;DHT22;46196;52.970;6.954;2023-09-08T13:16:28;34.10;64.40
60353;DHT22;46196;52.970;6.954;2023-09-08T13:18:54;34.30;63.40
60353;DHT22;46196;52.970;6.954;2023-09-08T13:21:20;34.10;63.90
60353;DHT22;46196;52.970;6.954;2023-09-08T13:23:46;34.10;64.70
60353;DHT22;46196;52.970;6.954;2023-09-08T13:26:12;34.20;63.50
60353;DHT22;46196;52.970;6.954;2023-09-08T13:28:37;34.10;62.50
60353;DHT22;46196;52.970;6.954;2023-09-08T13:31:03;34.10;62.30
60353;DHT22;46196;52.970;6.954;2023-09-08T13:33:29;34.00;62.40
60353;DHT22;46196;52.970;6.954;2023-09-08T13:35:54;34.00;62.60
60353;DHT22;46196;52.970;6.954;2023-09-08T13:38:21;34.00;64.00
60353;DHT22;46196;52.970;6.954;2023-09-08T13:40:47;34.90;62.60
60353;DHT22;46196;52.970;6.954;2023-09-08T13:43:12;34.60;60.90
60353;DHT22;46196;52.970;6.954;2023-09-08T13:45:39;34.30;62.50
60353;DHT22;46196;52.970;6.954;2023-09-08T13:48:05;34.20;60.90
60353;DHT22;46196;52.970;6.954;2023-09-08T13:50:32;34.20;61.60
60353;DHT22;46196;52.970;6.954;2023-09-08T13:52:57;34.20;61.90
60353;DHT22;46196;52.970;6.954;2023-09-08T13:55:24;34.20;62.20
60353;DHT22;46196;52.970;6.954;2023-09-08T13:57:50;34.20;62.40
60353;DHT22;46196;52.970;6.954;2023-09-08T14:00:17;34.30;61.90
60353;DHT22;46196;52.970;6.954;2023-09-08T14:02:43;34.40;60.50
60353;DHT22;46196;52.970;6.954;2023-09-08T14:05:09;34.30;60.70
60353;DHT22;46196;52.970;6.954;2023-09-08T14:07:34;34.00;60.80
60353;DHT22;46196;52.970;6.954;2023-09-08T14:10:00;34.00;61.50
60353;DHT22;46196;52.970;6.954;2023-09-08T14:12:27;34.00;61.80
60353;DHT22;46196;52.970;6.954;2023-09-08T14:14:52;33.90;60.90
60353;DHT22;46196;52.970;6.954;2023-09-08T14:17:33;33.80;60.80
60353;DHT22;46196;52.970;6.954;2023-09-08T14:20:02;33.80;61.20
60353;DHT22;46196;52.970;6.954;2023-09-08T14:22:29;33.60;61.30
60353;DHT22;46196;52.970;6.954;2023-09-08T14:24:54;33.70;60.80
60353;DHT22;46196;52.970;6.954;2023-09-08T14:27:20;33.70;61.10
60353;DHT22;46196;52.970;6.954;2023-09-08T14:29:46;33.90;59.20
60353;DHT22;46196;52.970;6.954;2023-09-08T14:32:11;33.60;59.50
60353;DHT22;46196;52.970;6.954;2023-09-08T14:34:37;33.40;60.90
60353;DHT22;46196;52.970;6.954;2023-09-08T14:37:03;33.40;60.60
60353;DHT22;46196;52.970;6.954;2023-09-08T14:39:28;33.30;60.00
60353;DHT22;46196;52.970;6.954;2023-09-08T14:41:54;33.20;59.60
60353;DHT22;46196;52.970;6.954;2023-09-08T14:44:20;33.20;60.30
60353;DHT22;46196;52.970;6.954;2023-09-08T14:46:50;33.70;61.60
60353;DHT22;46196;52.970;6.954;2023-09-08T14:49:15;34.60;62.60
60353;DHT22;46196;52.970;6.954;2023-09-08T14:51:41;34.10;61.20
60353;DHT22;46196;52.970;6.954;2023-09-08T14:54:07;33.50;61.30
60353;DHT22;46196;52.970;6.954;2023-09-08T14:56:32;33.50;61.30
60353;DHT22;46196;52.970;6.954;2023-09-08T14:58:58;33.40;61.40
60353;DHT22;46196;52.970;6.954;2023-09-08T15:01:25;33.40;61.70
60353;DHT22;46196;52.970;6.954;2023-09-08T15:03:51;33.40;61.50
60353;DHT22;46196;52.970;6.954;2023-09-08T15:06:17;33.40;62.10
60353;DHT22;46196;52.970;6.954;2023-09-08T15:08:42;33.40;63.00
60353;DHT22;46196;52.970;6.954;2023-09-08T15:11:11;33.30;61.90
60353;DHT22;46196;52.970;6.954;2023-09-08T15:13:37;33.40;62.10
60353;DHT22;46196;52.970;6.954;2023-09-08T15:16:02;33.30;61.10
60353;DHT22;46196;52.970;6.954;2023-09-08T15:18:29;33.30;61.20
60353;DHT22;46196;52.970;6.954;2023-09-08T15:20:56;33.30;61.60
60353;DHT22;46196;52.970;6.954;2023-09-08T15:23:22;33.00;60.80
60353;DHT22;46196;52.970;6.954;2023-09-08T15:25:56;33.30;61.30
60353;DHT22;46196;52.970;6.954;2023-09-08T15:28:22;33.50;60.00
60353;DHT22;46196;52.970;6.954;2023-09-08T15:30:49;33.20;60.40
60353;DHT22;46196;52.970;6.954;2023-09-08T15:33:15;32.40;59.30
60353;DHT22;46196;52.970;6.954;2023-09-08T15:35:42;33.30;61.00
60353;DHT22;46196;52.970;6.954;2023-09-08T15:38:08;32.40;60.00
60353;DHT22;46196;52.970;6.954;2023-09-08T15:40:34;33.10;61.30
60353;DHT22;46196;52.970;6.954;2023-09-08T15:42:59;33.00;61.60
60353;DHT22;46196;52.970;6.954;2023-09-08T15:45:25;33.10;62.20
60353;DHT22;46196;52.970;6.954;2023-09-08T15:47:51;33.20;62.40
60353;DHT22;46196;52.970;6.954;2023-09-08T15:50:17;33.20;61.60
60353;DHT22;46196;52.970;6.954;2023-09-08T15:52:42;33.20;61.50
60353;DHT22;46196;52.970;6.954;2023-09-08T15:55:08;33.10;62.00
60353;DHT22;46196;52.970;6.954;2023-09-08T15:57:34;33.10;61.80
60353;DHT22;46196;52.970;6.954;2023-09-08T15:59:59;33.10;61.30
60353;DHT22;46196;52.970;6.954;2023-09-08T16:02:25;33.00;61.10
60353;DHT22;46196;52.970;6.954;2023-09-08T16:04:51;32.90;62.00
60353;DHT22;46196;52.970;6.954;2023-09-08T16:07:16;32.90;62.30
60353;DHT22;46196;52.970;6.954;2023-09-08T16:09:42;32.90;62.10
60353;DHT22;46196;52.970;6.954;2023-09-08T16:12:08;32.90;62.30
60353;DHT22;46196;52.970;6.954;2023-09-08T16:14:34;32.90;62.30
60353;DHT22;46196;52.970;6.954;2023-09-08T16:17:00;33.00;61.60
60353;DHT22;46196;52.970;6.954;2023-09-08T16:19:26;32.90;61.50
60353;DHT22;46196;52.970;6.954;2023-09-08T16:21:52;32.80;62.30
60353;DHT22;46196;52.970;6.954;2023-09-08T16:24:18;32.70;62.10
60353;DHT22;46196;52.970;6.954;2023-09-08T16:26:43;32.70;62.50
60353;DHT22;46196;52.970;6.954;2023-09-08T16:29:09;32.70;62.80
60353;DHT22;46196;52.970;6.954;2023-09-08T16:31:34;32.60;62.80
60353;DHT22;46196;52.970;6.954;2023-09-08T16:34:01;32.50;63.20
60353;DHT22;46196;52.970;6.954;2023-09-08T16:36:27;32.50;63.40
60353;DHT22;46196;52.970;6.954;2023-09-08T16:38:52;32.40;64.00